Time;durP1;ratioP1;P1;durP2;ratioP2;P2;SDS_P1;SDS_P2;PMS_P1;PMS_P2;Temp;Humidity;BMP_temperature;BMP_pressure;BME280_temperature;BME280_humidity;BME280_pressure;Samples;Min_cycle;Max_cycle;Signal;HPM_P1;HPM_P2
2023/01/12 00:03:11;;;;;;;1.88;1.27;;;;;;;17.49;52.73;97673.59;10379456;28;20075;-86
2023/01/12 00:08:10;;;;;;;1.83;1.63;;;;;;;16.26;52.87;97472.72;10377366;28;20067;-86
2023/01/12 00:13:09;;;;;;;1.58;1.38;;;;;;;17.87;53.00;97760.84;10374893;28;20037;-87
2023/01/12 00:18:08;;;;;;;1.65;1.30;;;;;;;17.70;53.04;97746.41;10378787;28;20120;-86
2023/01/12 00:23:07;;;;;;;1.55;1.45;;;;;;;17.71;52.91;97742.06;10354145;28;20802;-87
2023/01/12 00:28:06;;;;;;;2.83;1.50;;;;;;;15.53;53.26;97384.84;10338200;28;20384;-87
2023/01/12 00:33:05;;;;;;;2.60;1.58;;;;;;;18.46;53.54;97865.84;10376464;28;20124;-86
2023/01/12 00:38:05;;;;;;;2.47;1.45;;;;;;;18.59;53.80;97893.44;10371811;28;20127;-86
2023/01/12 00:48:21;;;;;;;1.70;1.50;;;;;;;17.76;53.16;97745.41;10370932;28;20057;-86
2023/01/12 00:53:20;;;;;;;1.60;1.50;;;;;;;17.69;53.43;97756.97;10336566;28;20033;-86
2023/01/12 00:58:19;;;;;;;1.33;1.23;;;;;;;17.97;53.36;97780.66;10374099;28;20473;-86
2023/01/12 01:03:18;;;;;;;1.75;1.30;;;;;;;17.85;53.53;97783.69;10377296;28;20409;-87
2023/01/12 01:08:17;;;;;;;1.40;1.30;;;;;;;18.86;53.26;97932.97;10376968;28;20067;-87
2023/01/12 01:13:16;;;;;;;2.08;1.52;;;;;;;17.84;53.74;97782.78;10375915;28;20127;-86
2023/01/12 01:18:15;;;;;;;1.50;1.40;;;;;;;17.65;54.36;97753.56;10365391;28;20051;-87
2023/01/12 01:23:14;;;;;;;1.52;1.33;;;;;;;17.31;54.50;97694.22;10372507;28;20395;-87
2023/01/12 01:28:14;;;;;;;1.95;1.30;;;;;;;17.57;54.67;97742.47;10374173;28;20060;-86
2023/01/12 01:33:13;;;;;;;1.63;1.52;;;;;;;18.54;55.02;97884.84;10384016;28;20076;-86
2023/01/12 01:38:12;;;;;;;1.77;1.50;;;;;;;17.96;55.13;97797.31;10374368;28;20040;-87
2023/01/12 01:43:17;;;;;;;1.60;1.50;;;;;;;17.53;55.33;97725.94;10375074;28;20040;-87
2023/01/12 01:48:16;;;;;;;1.80;1.42;;;;;;;18.05;55.31;97802.28;10371144;28;20072;-86
2023/01/12 01:53:21;;;;;;;2.35;1.40;;;;;;;18.61;55.78;97890.78;10375945;28;20056;-86
2023/01/12 01:58:48;;;;;;;1.52;1.42;;;;;;;17.55;55.44;97718.03;10370148;28;20052;-86
2023/01/12 02:03:48;;;;;;;2.45;2.20;;;;;;;18.13;55.65;97818.69;10354525;28;20065;-86
2023/01/12 02:08:55;;;;;;;3.08;2.30;;;;;;;17.79;55.78;97757.59;10375459;28;20075;-86
2023/01/12 02:19:38;;;;;;;2.15;1.95;;;;;;;18.75;55.93;97933.31;10363204;28;20069;-86
2023/01/12 02:24:40;;;;;;;3.33;2.80;;;;;;;18.73;55.74;97932.47;10381460;28;20035;-86
2023/01/12 02:29:57;;;;;;;4.05;2.47;;;;;;;18.73;56.00;97934.25;10373679;28;20498;-86
2023/01/12 02:35:25;;;;;;;2.53;2.30;;;;;;;16.08;55.66;97534.28;10375107;28;20103;-86
2023/01/12 02:40:53;;;;;;;4.30;2.13;;;;;;;18.71;55.89;97928.19;10342836;28;20722;-86
2023/01/12 02:45:58;;;;;;;2.38;2.10;;;;;;;18.69;55.88;97928.25;10350555;28;20033;-86
2023/01/12 02:51:13;;;;;;;2.40;2.20;;;;;;;16.79;56.07;97617.00;10335391;28;20654;-86
2023/01/12 02:56:19;;;;;;;3.85;2.30;;;;;;;18.68;56.26;97917.75;10356318;28;20060;-87
2023/01/12 03:01:21;;;;;;;3.22;2.25;;;;;;;18.29;56.26;97857.59;10357512;28;20056;-86
2023/01/12 03:06:19;;;;;;;2.90;2.22;;;;;;;17.47;56.35;97726.13;10357477;28;20041;-86
2023/01/12 03:11:22;;;;;;;2.42;2.22;;;;;;;17.37;56.42;97731.69;10370111;28;20060;-87
2023/01/12 03:16:25;;;;;;;3.22;2.20;;;;;;;18.12;56.53;97824.81;10382556;28;20057;-86
2023/01/12 03:21:27;;;;;;;3.10;2.20;;;;;;;18.62;56.53;97908.28;10365825;28;20048;-86
2023/01/12 03:26:29;;;;;;;3.15;2.22;;;;;;;17.60;56.37;97739.72;10354958;28;20057;-86
2023/01/12 03:31:28;;;;;;;3.15;2.38;;;;;;;16.30;56.38;97509.25;10342793;28;20037;-86
2023/01/12 03:36:34;;;;;;;3.17;2.28;;;;;;;18.25;56.17;97840.25;10343461;28;20467;-86
2023/01/12 03:41:58;;;;;;;2.50;2.13;;;;;;;18.22;56.16;97829.81;10379091;28;20037;-87
2023/01/12 03:47:03;;;;;;;2.47;2.15;;;;;;;17.63;56.30;97726.50;10381802;28;20067;-86
2023/01/12 03:52:06;;;;;;;2.85;2.22;;;;;;;17.09;55.85;97645.91;10339945;28;20052;-86
2023/01/12 03:57:08;;;;;;;2.47;2.20;;;;;;;17.39;55.96;97690.53;10340721;28;20029;-86
2023/01/12 04:02:07;;;;;;;2.85;2.33;;;;;;;17.61;56.11;97727.47;10340207;28;20041;-86
2023/01/12 04:07:06;;;;;;;2.45;2.25;;;;;;;18.58;56.10;97897.00;10344032;28;20079;-87
2023/01/12 04:12:11;;;;;;;3.25;2.20;;;;;;;17.11;55.66;97644.13;10380745;28;20025;-87
2023/01/12 04:17:13;;;;;;;3.97;2.78;;;;;;;18.43;56.06;97876.44;10379825;28;20636;-87
2023/01/12 04:27:33;;;;;;;2.10;1.90;;;;;;;17.10;56.08;97647.66;10371926;28;20414;-86
2023/01/12 04:32:32;;;;;;;3.80;2.13;;;;;;;17.28;56.30;97712.66;10338965;28;20475;-86
2023/01/12 04:37:34;;;;;;;3.05;2.33;;;;;;;18.19;56.28;97868.38;10348151;28;20029;-86
2023/01/12 04:47:50;;;;;;;2.05;1.90;;;;;;;17.64;55.75;97769.38;10379118;28;20483;-86
2023/01/12 04:52:49;;;;;;;2.90;2.15;;;;;;;17.55;56.08;97733.75;10341112;28;20406;-86
2023/01/12 04:57:48;;;;;;;3.65;2.22;;;;;;;17.95;56.13;97811.34;10365412;28;20045;-86
2023/01/12 05:02:47;;;;;;;2.25;2.05;;;;;;;18.11;56.22;97775.84;10376323;28;20037;-85
2023/01/12 05:13:04;;;;;;;2.20;1.70;;;;;;;19.30;56.14;97929.78;10377794;28;20032;-86
2023/01/12 05:18:03;;;;;;;2.42;1.80;;;;;;;18.92;55.97;97853.88;10361362;28;20030;-86
2023/01/12 05:23:02;;;;;;;2.33;1.75;;;;;;;19.36;55.74;97898.03;10343548;28;20072;-86
2023/01/12 05:28:01;;;;;;;3.10;1.95;;;;;;;18.51;55.04;97711.50;10364269;28;20026;-86
2023/01/12 05:33:00;;;;;;;3.03;2.25;;;;;;;19.24;54.77;97833.53;10377296;28;20069;-86
2023/01/12 05:37:59;;;;;;;2.78;1.70;;;;;;;19.61;54.30;97869.13;10368904;28;20067;-86
2023/01/12 05:48:16;;;;;;;2.72;1.98;;;;;;;18.59;53.53;97693.69;10373534;28;20068;-86
2023/01/12 05:53:15;;;;;;;4.07;2.67;;;;;;;19.15;53.22;97786.50;10373260;28;20029;-86
2023/01/12 05:58:14;;;;;;;2.42;2.20;;;;;;;19.98;53.62;97923.09;10353670;28;20042;-86
2023/01/12 06:03:12;;;;;;;2.30;2.10;;;;;;;19.38;53.29;97841.78;10374946;28;20025;-86
2023/01/12 06:08:11;;;;;;;2.70;2.13;;;;;;;18.70;53.34;97758.25;10356169;28;20041;-86
2023/01/12 06:18:28;;;;;;;2.97;2.30;;;;;;;19.54;52.93;97907.94;10357893;28;20025;-85
2023/01/12 06:23:27;;;;;;;3.08;2.75;;;;;;;19.67;51.12;97937.34;10375078;28;20013;-85
2023/01/12 06:28:27;;;;;;;3.47;2.70;;;;;;;19.16;49.61;97869.78;10366842;28;20056;-85
2023/01/12 06:39:01;;;;;;;9.77;7.70;;;;;;;15.40;39.46;98018.84;10238135;27;20219;-50
2023/01/12 06:44:00;;;;;;;13.93;8.50;;;;;;;11.09;46.13;97991.66;10052536;28;20130;-48
2023/01/12 06:48:59;;;;;;;15.10;9.73;;;;;;;8.79;52.50;98049.03;10328517;28;20053;-47
2023/01/12 06:53:58;;;;;;;20.02;12.40;;;;;;;6.87;58.78;98056.53;10243954;28;20127;-48
2023/01/12 06:58:57;;;;;;;;;;;;;;;5.40;66.53;98056.84;10320683;28;20081;-47
2023/01/12 07:03:56;;;;;;;11.55;7.53;;;;;;;4.54;70.92;98062.28;10320020;28;19972;-48
2023/01/12 07:08:55;;;;;;;8.80;4.53;;;;;;;4.13;73.72;98063.66;10303698;28;20133;-48
2023/01/12 07:13:54;;;;;;;8.55;4.88;;;;;;;3.88;75.81;98067.22;10362009;28;20025;-49
2023/01/12 07:18:53;;;;;;;10.27;6.80;;;;;;;3.63;77.13;98069.00;10272062;28;20078;-49
2023/01/12 07:23:52;;;;;;;11.23;6.18;;;;;;;3.39;79.37;98058.84;10325183;28;20116;-49
2023/01/12 07:28:51;;;;;;;42.47;32.67;;;;;;;3.29;79.84;98061.94;10320061;28;20065;-48
2023/01/12 07:33:52;;;;;;;10.95;6.75;;;;;;;3.41;80.10;98067.47;10321156;28;20072;-50
2023/01/12 07:38:51;;;;;;;8.30;5.32;;;;;;;3.36;80.72;98069.03;10309401;28;20085;-48
2023/01/12 07:43:50;;;;;;;17.65;11.98;;;;;;;3.14;80.60;98046.91;10317446;28;20065;-49
2023/01/12 07:48:49;;;;;;;11.25;7.50;;;;;;;3.36;81.01;98077.59;10301979;28;20037;-48
2023/01/12 07:53:48;;;;;;;21.23;13.95;;;;;;;3.39;81.06;98077.66;10295739;28;20033;-47
2023/01/12 07:58:48;;;;;;;11.65;9.00;;;;;;;3.37;81.82;98081.00;10292596;28;20388;-49
2023/01/12 08:03:47;;;;;;;8.48;5.55;;;;;;;3.20;81.56;98088.16;10294843;28;20080;-48
2023/01/12 08:08:46;;;;;;;11.68;6.63;;;;;;;3.22;82.13;98089.09;10289411;28;20030;-49
2023/01/12 08:13:45;;;;;;;13.30;6.97;;;;;;;3.10;82.90;98099.81;10293563;28;20542;-46
2023/01/12 08:18:57;;;;;;;14.30;8.40;;;;;;;3.12;82.86;98099.84;10292098;28;20125;-48
2023/01/12 08:23:59;;;;;;;9.90;5.68;;;;;;;2.98;82.44;98097.69;10263104;28;20104;-47
2023/01/12 08:29:05;;;;;;;9.50;5.43;;;;;;;2.87;82.62;98068.25;10292625;28;20065;-48
2023/01/12 08:34:06;;;;;;;7.72;4.75;;;;;;;2.94;83.21;98106.09;10292540;28;20682;-48
2023/01/12 08:39:05;;;;;;;8.75;5.55;;;;;;;2.93;82.82;98117.19;10287247;28;20108;-46
2023/01/12 08:44:09;;;;;;;19.35;11.85;;;;;;;2.90;82.78;98088.84;10292767;28;20053;-46
2023/01/12 08:49:10;;;;;;;16.38;9.50;;;;;;;3.07;82.84;98103.94;10291102;28;20115;-46
2023/01/12 08:54:11;;;;;;;12.82;8.23;;;;;;;2.88;83.89;98100.75;10289073;28;20057;-48
2023/01/12 08:59:11;;;;;;;6.35;4.13;;;;;;;2.86;84.35;98096.38;10288431;28;20523;-46
2023/01/12 09:04:10;;;;;;;18.27;12.73;;;;;;;2.78;85.24;98098.69;10289067;28;20061;-47
2023/01/12 09:09:14;;;;;;;10.70;7.45;;;;;;;2.89;85.21;98104.19;10288949;28;20057;-46
2023/01/12 09:14:15;;;;;;;7.18;5.03;;;;;;;2.82;85.11;98100.56;10278754;28;20555;-48
2023/01/12 09:19:14;;;;;;;10.80;6.18;;;;;;;2.78;85.12;98103.81;10285862;28;20065;-46
2023/01/12 09:24:13;;;;;;;11.73;6.80;;;;;;;2.42;86.45;98076.06;10289527;28;20061;-47
2023/01/12 09:29:13;;;;;;;9.25;6.00;;;;;;;2.64;86.36;98102.47;10289746;28;20084;-47
2023/01/12 09:34:12;;;;;;;9.88;6.47;;;;;;;2.77;85.86;98086.72;10285438;28;20069;-48
2023/01/12 09:39:14;;;;;;;;;;;;;;;2.81;85.85;98099.66;10290212;28;20538;-49
2023/01/12 09:50:12;;;;;;;11.52;7.45;;;;;;;2.92;86.45;98096.59;10291078;28;20085;-47
2023/01/12 09:55:15;;;;;;;10.13;5.75;;;;;;;2.84;86.04;98088.66;10289653;28;20526;-48
2023/01/12 10:00:16;;;;;;;10.77;6.35;;;;;;;3.11;85.80;98085.28;10290691;28;20510;-47
2023/01/12 10:05:31;;;;;;;9.40;5.40;;;;;;;2.11;85.94;97928.16;10285879;28;20061;-49
2023/01/12 10:10:30;;;;;;;16.45;10.23;;;;;;;2.95;86.01;98081.31;10289294;28;20061;-47
2023/01/12 10:15:52;;;;;;;12.60;8.35;;;;;;;2.90;86.48;98082.88;10287629;28;20042;-47
2023/01/12 10:20:51;;;;;;;12.07;7.35;;;;;;;2.98;86.08;98082.31;10289296;28;20080;-47
2023/01/12 10:25:58;;;;;;;11.60;7.88;;;;;;;2.99;86.39;98073.78;10284095;28;20061;-47
2023/01/12 10:30:58;;;;;;;12.48;7.05;;;;;;;3.02;85.94;98058.50;10288066;28;20779;-49
2023/01/12 10:36:18;;;;;;;7.38;4.18;;;;;;;3.25;85.18;98063.53;10282907;28;20130;-47
2023/01/12 10:41:22;;;;;;;7.28;4.93;;;;;;;3.01;85.63;98022.59;10288808;28;20061;-47
2023/01/12 10:46:23;;;;;;;8.15;5.05;;;;;;;3.10;86.31;98060.47;10283407;28;20815;-46
2023/01/12 10:51:48;;;;;;;5.85;3.38;;;;;;;2.38;85.62;97934.22;10288489;28;20498;-46
2023/01/12 10:57:00;;;;;;;7.55;4.60;;;;;;;3.24;85.77;98054.09;10287214;28;20073;-48
2023/01/12 11:02:10;;;;;;;8.85;4.25;;;;;;;3.35;85.34;98045.03;10288455;28;20061;-46
2023/01/12 11:07:24;;;;;;;37.60;20.33;;;;;;;3.55;85.13;98049.94;10288730;28;20057;-49
2023/01/12 11:12:28;;;;;;;13.52;7.20;;;;;;;3.70;84.50;98040.16;10286358;28;20064;-49
2023/01/12 11:17:53;;;;;;;12.70;7.07;;;;;;;3.95;83.75;98044.34;10286468;28;20113;-48
2023/01/12 11:22:55;;;;;;;10.10;5.63;;;;;;;4.05;83.87;98045.47;10290551;28;20065;-49
2023/01/12 11:28:00;;;;;;;9.27;5.40;;;;;;;4.06;83.54;98044.66;10286348;28;20118;-48
2023/01/12 11:33:23;;;;;;;12.18;7.63;;;;;;;4.11;83.02;98037.09;10281799;28;20072;-47
2023/01/12 11:38:39;;;;;;;14.50;8.00;;;;;;;3.95;83.31;98035.75;10289293;28;20080;-49
2023/01/12 11:43:57;;;;;;;9.95;6.03;;;;;;;3.95;83.13;98035.75;10292671;28;20081;-47
2023/01/12 11:49:26;;;;;;;13.60;8.82;;;;;;;4.03;83.49;98035.19;10291850;28;20459;-47
2023/01/12 11:54:27;;;;;;;11.07;6.10;;;;;;;4.07;83.36;98025.84;10282715;28;20128;-46
2023/01/12 11:59:37;;;;;;;9.32;5.60;;;;;;;4.12;83.08;98021.69;10293295;28;20109;-45
2023/01/12 12:04:51;;;;;;;10.45;5.85;;;;;;;4.02;82.26;98019.72;10299737;28;20507;-46
2023/01/12 12:10:14;;;;;;;10.65;6.50;;;;;;;4.08;82.53;98025.03;10287852;28;20089;-47
2023/01/12 12:15:37;;;;;;;10.55;7.10;;;;;;;4.37;82.36;98019.84;10272902;28;20125;-48
2023/01/12 12:20:47;;;;;;;8.27;4.70;;;;;;;4.51;80.33;98021.09;10284947;28;20113;-47
2023/01/12 12:26:04;;;;;;;7.88;4.60;;;;;;;4.44;79.82;97976.38;10287128;28;20550;-46
2023/01/12 12:31:12;;;;;;;2.70;1.50;;;;;;;4.93;77.58;98007.63;10273365;28;20072;-46
2023/01/12 12:36:31;;;;;;;17.13;11.57;;;;;;;5.01;78.06;98015.56;10286347;28;20078;-49
2023/01/12 12:47:26;;;;;;;3.78;2.72;;;;;;;4.87;76.64;98013.47;10275193;28;20397;-46
2023/01/12 12:52:48;;;;;;;3.03;2.33;;;;;;;5.06;74.89;97998.53;10274131;28;20567;-46
2023/01/12 12:58:03;;;;;;;6.47;4.35;;;;;;;4.92;75.06;97954.44;10287778;28;20128;-48
2023/01/12 13:03:02;;;;;;;6.50;4.63;;;;;;;5.36;73.08;98013.84;10286479;28;20567;-48
2023/01/12 13:08:01;;;;;;;12.93;6.90;;;;;;;5.09;72.60;98014.91;10284311;28;20026;-46
2023/01/12 13:13:02;;;;;;;7.35;4.57;;;;;;;4.70;73.45;98000.16;10285212;28;20030;-46
2023/01/12 13:18:03;;;;;;;13.48;8.35;;;;;;;4.70;73.38;98020.75;10283312;28;20105;-49
2023/01/12 13:23:23;;;;;;;8.25;4.30;;;;;;;4.11;74.46;97973.75;10283806;28;20130;-49
2023/01/12 13:28:22;;;;;;;11.63;6.78;;;;;;;4.33;75.13;98003.47;10285242;28;20115;-48
2023/01/12 13:33:25;;;;;;;14.98;8.77;;;;;;;4.46;75.63;98017.53;10271303;28;20030;-49
2023/01/12 13:38:33;;;;;;;5.00;3.33;;;;;;;4.75;75.46;98018.28;10282246;28;20150;-47
2023/01/12 13:43:37;;;;;;;2.92;2.47;;;;;;;4.76;73.14;98002.06;10287251;28;20077;-47
2023/01/12 13:48:36;;;;;;;18.50;12.10;;;;;;;4.87;74.57;98025.44;10283384;28;20113;-47
2023/01/12 13:53:35;;;;;;;18.15;11.50;;;;;;;4.93;74.60;98012.75;10285804;28;20058;-49
2023/01/12 13:58:40;;;;;;;40.80;25.58;;;;;;;4.65;75.54;98017.19;10290290;28;20045;-49
2023/01/12 14:03:48;;;;;;;9.80;6.03;;;;;;;4.77;75.25;98018.34;10289124;28;20081;-47
2023/01/12 14:09:00;;;;;;;8.32;5.28;;;;;;;4.58;76.58;98024.69;10286610;28;20058;-48
2023/01/12 14:19:27;;;;;;;12.68;8.55;;;;;;;3.89;79.28;97984.22;10283899;28;20121;-46
2023/01/12 14:24:26;;;;;;;7.45;4.30;;;;;;;3.75;80.25;98033.47;10282237;28;20122;-49
2023/01/12 14:29:25;;;;;;;6.78;4.70;;;;;;;3.41;82.52;98041.81;10287114;28;20046;-48
2023/01/12 14:34:35;;;;;;;;;;;;;;;3.36;82.88;98044.25;10285158;28;20132;-47
2023/01/12 14:39:39;;;;;;;9.73;6.05;;;;;;;3.48;82.93;98042.88;10279064;28;20421;-48
2023/01/12 14:50:12;;;;;;;11.90;7.90;;;;;;;3.15;84.38;98033.28;10286145;28;20351;-48
2023/01/12 14:55:23;;;;;;;12.10;7.72;;;;;;;3.07;85.13;98042.41;10285847;28;20475;-49
2023/01/12 15:00:28;;;;;;;12.10;8.43;;;;;;;3.23;84.40;98048.09;10281179;28;20120;-49
2023/01/12 15:05:32;;;;;;;7.53;4.18;;;;;;;3.23;84.33;98052.34;10291668;28;20069;-48
2023/01/12 15:10:36;;;;;;;6.85;4.13;;;;;;;3.02;85.36;98057.63;10294098;28;20054;-49
2023/01/12 15:26:10;;;;;;;10.40;5.40;;;;;;;2.92;86.15;98071.84;10296102;28;20527;-46
2023/01/12 15:31:15;;;;;;;;;;;;;;;3.11;85.01;98077.59;10284440;28;20141;-49
2023/01/12 15:36:14;;;;;;;9.13;5.35;;;;;;;2.92;85.39;98083.78;10292340;28;19957;-47
2023/01/12 15:41:16;;;;;;;18.30;13.55;;;;;;;2.65;86.16;98029.88;10295794;28;20095;-48
2023/01/12 15:46:18;;;;;;;19.95;12.85;;;;;;;2.80;86.68;98091.94;10291226;28;20061;-47
2023/01/12 15:51:17;;;;;;;13.95;8.48;;;;;;;2.91;86.45;98088.06;10311330;28;20069;-49
2023/01/12 15:56:16;;;;;;;12.00;7.53;;;;;;;2.91;86.09;98098.31;10294272;28;20105;-48
2023/01/12 16:01:17;;;;;;;10.10;6.07;;;;;;;3.01;86.08;98102.06;10294035;28;20040;-50
2023/01/12 16:06:16;;;;;;;16.23;10.80;;;;;;;3.11;85.56;98103.22;10293556;28;20072;-49
2023/01/12 16:11:19;;;;;;;23.00;12.85;;;;;;;2.63;86.73;98116.06;10299585;28;20125;-47
2023/01/12 16:16:20;;;;;;;18.92;12.90;;;;;;;2.80;86.02;98123.56;10282245;28;20084;-48
2023/01/12 16:21:22;;;;;;;13.15;8.02;;;;;;;2.07;86.69;98044.06;10294300;28;20069;-47
2023/01/12 16:26:21;;;;;;;12.85;8.68;;;;;;;2.46;87.06;98126.56;10281956;28;20130;-48
2023/01/12 16:31:20;;;;;;;13.07;8.38;;;;;;;2.44;86.98;98133.34;10286238;28;20045;-49
2023/01/12 16:36:18;;;;;;;16.63;9.63;;;;;;;2.63;87.21;98134.00;10263484;28;20049;-48
2023/01/12 16:41:18;;;;;;;11.23;7.65;;;;;;;2.65;86.39;98134.94;10304034;28;20092;-49
2023/01/12 16:46:16;;;;;;;;;;;;;;;2.77;85.54;98141.38;10292330;28;20061;-50
2023/01/12 16:51:17;;;;;;;5.43;3.40;;;;;;;2.79;85.68;98141.41;10290392;28;19914;-47
2023/01/12 16:56:16;;;;;;;3.83;2.47;;;;;;;2.71;85.72;98153.09;10289429;28;20761;-48
2023/01/12 17:01:19;;;;;;;8.73;5.90;;;;;;;2.69;86.57;98150.47;10291099;28;20506;-47
2023/01/12 17:06:20;;;;;;;18.15;13.50;;;;;;;2.54;87.19;98109.81;10248276;28;20133;-47
2023/01/12 17:11:22;;;;;;;17.50;12.20;;;;;;;2.61;87.35;98110.03;10289238;28;20136;-49
2023/01/12 17:16:23;;;;;;;14.50;9.80;;;;;;;2.90;87.11;98132.44;10304944;28;20137;-47
2023/01/12 17:21:22;;;;;;;9.02;5.85;;;;;;;3.11;86.89;98155.38;10284269;28;20499;-49
2023/01/12 17:26:21;;;;;;;13.75;8.77;;;;;;;3.15;86.76;98153.81;10279054;28;20575;-48
2023/01/12 17:31:19;;;;;;;13.23;7.80;;;;;;;3.28;85.79;98163.66;10277615;28;20124;-47
2023/01/12 17:36:18;;;;;;;19.40;9.30;;;;;;;3.11;85.77;98172.47;10275462;28;20503;-48
2023/01/12 17:46:35;;;;;;;4.82;3.10;;;;;;;2.82;86.16;98162.06;10282897;28;20065;-50
2023/01/12 17:51:34;;;;;;;;;;;;;;;2.61;86.63;98162.16;10059226;28;64583;-47
2023/01/12 17:56:34;;;;;;;4.75;2.95;;;;;;;2.22;87.90;98175.19;10178555;28;19921;-48
2023/01/12 18:01:35;;;;;;;7.35;5.25;;;;;;;2.29;88.72;98173.75;10324038;28;20100;-47
2023/01/12 18:06:34;;;;;;;10.55;6.63;;;;;;;2.40;88.56;98176.72;10312658;28;20061;-49
2023/01/12 18:11:33;;;;;;;;;;;;;;;2.64;88.41;98187.00;10020645;28;20127;-48
2023/01/12 18:16:32;;;;;;;420.63;160.00;;;;;;;2.74;88.31;98181.41;10272402;28;19920;-48
2023/01/12 18:21:32;;;;;;;254.02;99.88;;;;;;;2.91;88.27;98177.78;10321808;28;20164;-50
2023/01/12 18:26:34;;;;;;;558.47;219.80;;;;;;;2.95;88.45;98178.72;10321875;28;20045;-48
2023/01/12 18:31:39;;;;;;;212.05;88.03;;;;;;;3.11;87.86;98183.59;10300744;28;20068;-48
2023/01/12 18:36:40;;;;;;;58.65;28.42;;;;;;;3.24;88.00;98177.22;10312600;28;20152;-49
2023/01/12 18:57:33;;;;;;;47.03;28.33;;;;;;;3.54;86.55;98189.31;10322610;28;20125;-47
2023/01/12 19:02:32;;;;;;;32.63;18.27;;;;;;;3.58;86.25;98189.47;10305825;28;20554;-50
2023/01/12 19:07:39;;;;;;;60.40;31.38;;;;;;;3.65;85.94;98182.84;10319076;28;20060;-48
2023/01/12 19:12:37;;;;;;;31.15;17.55;;;;;;;3.69;85.21;98187.28;10304903;28;20073;-50
2023/01/12 19:17:37;;;;;;;16.38;9.98;;;;;;;3.77;84.80;98184.94;10318811;28;20120;-47
2023/01/12 19:33:15;;;;;;;32.85;21.60;;;;;;;3.29;82.97;98103.84;10320035;28;20072;-49
2023/01/12 19:38:14;;;;;;;36.00;23.15;;;;;;;3.78;83.70;98182.44;10316724;28;20137;-49
2023/01/12 19:43:19;;;;;;;35.83;23.55;;;;;;;3.83;83.27;98185.16;10306812;28;20473;-50
2023/01/12 19:48:20;;;;;;;40.88;27.23;;;;;;;3.81;83.49;98184.22;10325517;28;20069;-48
2023/01/12 19:53:27;;;;;;;40.38;26.77;;;;;;;3.79;83.30;98180.75;10311615;28;20069;-47
2023/01/12 19:58:27;;;;;;;17.48;11.40;;;;;;;3.51;83.64;98184.09;10327323;28;20170;-48
2023/01/12 20:03:26;;;;;;;13.38;8.80;;;;;;;3.30;84.24;98187.66;10324915;28;20578;-51
2023/01/12 20:08:25;;;;;;;12.70;7.68;;;;;;;3.22;84.72;98189.97;10327725;28;20485;-50
2023/01/12 20:13:25;;;;;;;14.35;11.20;;;;;;;3.25;84.87;98188.34;10328087;28;20049;-49
2023/01/12 20:18:24;;;;;;;7.10;4.03;;;;;;;2.84;84.33;98145.06;10299624;28;20140;-50
2023/01/12 20:23:23;;;;;;;14.90;7.80;;;;;;;3.10;85.00;98194.69;10325235;28;20041;-49
2023/01/12 20:28:22;;;;;;;5.47;3.45;;;;;;;2.93;85.22;98191.53;10153857;28;20057;-50
2023/01/12 20:33:22;;;;;;;4.57;2.75;;;;;;;2.80;85.64;98194.44;10283902;28;20430;-48
2023/01/12 20:38:21;;;;;;;6.03;3.80;;;;;;;2.68;87.07;98196.56;10324896;28;20567;-48
2023/01/12 20:43:20;;;;;;;4.47;2.80;;;;;;;2.52;87.10;98193.41;10323175;28;20499;-49
2023/01/12 20:48:19;;;;;;;6.78;4.20;;;;;;;2.20;88.77;98183.63;10322787;28;20070;-47
2023/01/12 20:53:18;;;;;;;7.88;4.13;;;;;;;2.27;89.42;98190.72;10330995;28;20037;-48
2023/01/12 20:58:17;;;;;;;12.55;7.88;;;;;;;2.23;89.50;98187.19;10325622;28;20041;-49
2023/01/12 21:03:16;;;;;;;;;;;;;;;2.24;90.13;98200.88;10328273;28;20566;-49
2023/01/12 21:08:16;;;;;;;80.60;32.85;;;;;;;2.34;90.24;98185.03;10317696;28;20375;-49
2023/01/12 21:13:15;;;;;;;32.78;16.40;;;;;;;2.50;89.54;98189.91;10328029;28;20057;-49
2023/01/12 21:18:14;;;;;;;14.60;7.30;;;;;;;2.67;89.06;98197.38;10323129;28;20073;-48
2023/01/12 21:23:13;;;;;;;73.00;37.90;;;;;;;2.88;88.58;98187.88;10327237;28;20040;-48
2023/01/12 21:28:13;;;;;;;70.53;37.55;;;;;;;3.09;88.40;98185.22;10320363;28;20474;-46
2023/01/12 21:33:12;;;;;;;52.50;28.35;;;;;;;3.25;87.38;98184.06;10327510;28;20068;-49
2023/01/12 21:38:11;;;;;;;;;;;;;;;3.41;87.07;98175.22;10322104;28;20085;-46
2023/01/12 21:43:12;;;;;;;75.18;36.05;;;;;;;3.55;86.38;98178.25;10324963;28;19913;-48
2023/01/12 21:48:13;;;;;;;87.78;42.70;;;;;;;3.58;86.18;98180.91;10322945;28;20108;-47
2023/01/12 21:53:14;;;;;;;100.97;51.10;;;;;;;3.63;85.66;98176.78;10310156;28;20076;-46
2023/01/12 21:58:13;;;;;;;44.65;24.98;;;;;;;3.72;85.21;98182.22;10322308;28;20069;-47
2023/01/12 22:03:12;;;;;;;11.73;6.35;;;;;;;3.72;84.90;98171.97;10327706;28;20039;-46
2023/01/12 22:08:11;;;;;;;6.18;3.60;;;;;;;3.64;84.26;98168.28;10324770;28;20416;-49
2023/01/12 22:13:13;;;;;;;44.83;23.73;;;;;;;3.59;84.31;98174.97;10328022;28;20033;-46
2023/01/12 22:18:12;;;;;;;17.83;10.68;;;;;;;3.44;84.59;98119.72;10322743;28;20084;-49
2023/01/12 22:23:11;;;;;;;8.77;5.50;;;;;;;3.77;84.05;98167.84;10314010;28;20120;-48
2023/01/12 22:28:10;;;;;;;;;;;;;;;3.70;83.99;98160.78;10329806;28;20069;-48
2023/01/12 22:33:12;;;;;;;16.63;8.32;;;;;;;3.65;84.28;98149.50;10323862;28;19956;-51
2023/01/12 22:38:11;;;;;;;24.08;13.07;;;;;;;3.69;84.38;98156.47;10325684;28;20129;-47
2023/01/12 22:43:25;;;;;;;9.05;6.47;;;;;;;3.68;83.43;98153.84;10322777;28;20120;-47
2023/01/12 22:48:26;;;;;;;5.82;3.35;;;;;;;3.55;83.45;98137.19;10326989;28;20072;-46
2023/01/12 22:53:25;;;;;;;12.07;5.78;;;;;;;3.44;83.88;98141.97;10323878;28;20081;-47
2023/01/12 22:58:24;;;;;;;13.15;6.70;;;;;;;3.32;83.66;98133.88;10328050;28;20052;-47
2023/01/12 23:03:22;;;;;;;3.90;3.03;;;;;;;3.40;84.24;98143.56;10320847;28;20069;-49
2023/01/12 23:08:22;;;;;;;5.53;3.20;;;;;;;2.58;83.46;98006.63;10313544;28;20040;-49
2023/01/12 23:13:21;;;;;;;8.73;6.00;;;;;;;3.32;84.02;98134.72;10314261;28;20073;-48
2023/01/12 23:18:28;;;;;;;10.77;5.70;;;;;;;3.40;83.87;98135.88;10317699;28;20136;-48
2023/01/12 23:23:29;;;;;;;11.80;6.40;;;;;;;3.35;83.98;98134.81;10331667;28;20470;-49
2023/01/12 23:28:28;;;;;;;7.43;5.10;;;;;;;3.33;83.63;98125.34;10326839;28;20725;-48
2023/01/12 23:33:27;;;;;;;9.40;5.55;;;;;;;3.05;84.23;98090.19;10329487;28;20077;-48
2023/01/12 23:38:26;;;;;;;7.43;4.25;;;;;;;3.25;83.72;98134.47;10331144;28;20128;-50
2023/01/12 23:43:26;;;;;;;8.07;5.38;;;;;;;3.11;83.69;98110.94;10334194;28;20045;-49
2023/01/12 23:48:25;;;;;;;10.18;5.95;;;;;;;3.05;84.27;98113.28;10332609;28;20120;-49
2023/01/12 23:53:25;;;;;;;20.08;12.15;;;;;;;3.25;84.37;98139.59;10334053;28;20116;-48
2023/01/12 23:58:24;;;;;;;8.75;5.50;;;;;;;3.30;84.27;98146.63;10333951;28;20124;-50
